createdAt,value
2019-05-07T00:02:18.649Z,8.15
2019-05-07T00:04:48.000Z,7.33
2019-05-07T00:07:17.566Z,8.68
2019-05-07T00:09:46.336Z,12.68
2019-05-07T00:12:15.183Z,9.83
2019-05-07T00:14:58.179Z,13.70
2019-05-07T00:17:15.686Z,7.95
2019-05-07T00:19:44.436Z,10.05
2019-05-07T00:22:13.306Z,10.98
2019-05-07T00:24:42.737Z,9.98
2019-05-07T00:27:13.115Z,8.85
2019-05-07T00:29:43.141Z,9.33
2019-05-07T00:32:12.253Z,15.75
2019-05-07T00:34:42.661Z,11.95
2019-05-07T00:37:13.983Z,8.38
2019-05-07T00:39:56.613Z,10.75
2019-05-07T00:42:27.956Z,12.15
2019-05-07T00:45:13.210Z,10.10
2019-05-07T00:47:28.874Z,10.03
2019-05-07T00:49:59.296Z,10.98
2019-05-07T00:52:28.259Z,7.65
2019-05-07T00:54:57.021Z,10.53
2019-05-07T00:57:25.746Z,15.15
2019-05-07T00:59:54.790Z,12.73
2019-05-07T01:02:23.861Z,11.88
2019-05-07T01:04:53.175Z,10.40
2019-05-07T01:07:22.922Z,13.03
2019-05-07T01:09:52.512Z,10.48
2019-05-07T01:12:23.120Z,12.93
2019-05-07T01:14:52.987Z,15.83
2019-05-07T01:17:22.765Z,11.27
2019-05-07T01:19:53.204Z,10.05
2019-05-07T01:22:22.366Z,9.13
2019-05-07T01:24:52.921Z,10.55
2019-05-07T01:27:22.743Z,9.80
2019-05-07T01:29:52.834Z,10.23
2019-05-07T01:32:23.708Z,11.75
2019-05-07T01:34:54.503Z,13.95
2019-05-07T01:37:23.430Z,11.65
2019-05-07T01:39:52.967Z,9.03
2019-05-07T01:42:22.344Z,11.17
2019-05-07T01:44:52.841Z,10.80
2019-05-07T01:47:23.766Z,9.43
2019-05-07T01:49:55.063Z,10.82
2019-05-07T01:52:23.133Z,14.47
2019-05-07T01:54:52.340Z,13.98
2019-05-07T01:57:23.134Z,11.40
2019-05-07T01:59:53.277Z,14.03
2019-05-07T02:02:35.500Z,13.83
2019-05-07T02:05:14.272Z,13.44
2019-05-07T02:07:44.855Z,15.03
2019-05-07T02:10:22.633Z,16.62
2019-05-07T02:12:52.606Z,16.77
2019-05-07T02:15:23.275Z,17.23
2019-05-07T02:17:52.596Z,20.17
2019-05-07T02:20:22.573Z,16.97
2019-05-07T02:22:53.193Z,15.50
2019-05-07T02:25:22.347Z,16.85
2019-05-07T02:27:52.844Z,14.40
2019-05-07T02:30:23.933Z,15.25
2019-05-07T02:32:53.944Z,14.45
2019-05-07T02:35:23.659Z,16.30
2019-05-07T02:37:56.905Z,16.82
2019-05-07T02:40:28.989Z,16.73
2019-05-07T02:42:57.741Z,17.23
2019-05-07T02:45:28.552Z,17.35
2019-05-07T02:47:57.536Z,13.62
2019-05-07T02:50:34.600Z,17.98
2019-05-07T02:53:23.211Z,17.93
2019-05-07T02:55:53.844Z,16.45
2019-05-07T02:58:24.100Z,18.02
2019-05-07T03:00:54.172Z,17.13
2019-05-07T03:03:24.628Z,15.23
2019-05-07T03:05:53.741Z,14.80
2019-05-07T03:08:27.055Z,16.62
2019-05-07T03:10:53.181Z,17.40
2019-05-07T03:13:23.749Z,13.90
2019-05-07T03:15:53.938Z,15.30
2019-05-07T03:18:23.908Z,17.67
2019-05-07T03:20:54.390Z,15.75
2019-05-07T03:23:24.735Z,19.10
2019-05-07T03:25:55.265Z,15.90
2019-05-07T03:28:25.730Z,18.62
2019-05-07T03:30:57.204Z,18.10
2019-05-07T03:33:27.956Z,17.48
2019-05-07T03:35:59.298Z,15.72
2019-05-07T03:38:28.169Z,16.93
2019-05-07T03:40:56.926Z,16.05
2019-05-07T03:43:27.048Z,17.82
2019-05-07T03:46:03.314Z,15.83
2019-05-07T03:48:33.288Z,16.12
2019-05-07T03:51:03.871Z,17.27
2019-05-07T03:53:33.786Z,21.17
2019-05-07T03:56:04.138Z,17.67
2019-05-07T03:58:34.144Z,14.03
2019-05-07T04:01:04.291Z,15.00
2019-05-07T04:03:34.419Z,15.90
2019-05-07T04:06:04.191Z,13.80
2019-05-07T04:08:33.615Z,18.62
2019-05-07T04:11:03.744Z,15.03
2019-05-07T04:13:33.715Z,14.78
2019-05-07T04:16:04.092Z,12.47
2019-05-07T04:18:33.681Z,16.60
2019-05-07T04:21:03.807Z,14.93
2019-05-07T04:23:34.483Z,13.43
2019-05-07T04:26:04.906Z,12.78
2019-05-07T04:28:35.295Z,14.20
2019-05-07T04:31:05.107Z,16.30
2019-05-07T04:33:35.430Z,16.85
2019-05-07T04:36:06.638Z,14.40
2019-05-07T04:38:35.587Z,16.48
2019-05-07T04:41:05.900Z,18.07
2019-05-07T04:43:34.766Z,17.80
2019-05-07T04:46:03.668Z,17.20
2019-05-07T04:48:34.115Z,19.98
2019-05-07T04:51:04.537Z,17.07
2019-05-07T04:53:33.328Z,18.02
2019-05-07T04:56:03.250Z,16.82
2019-05-07T04:58:33.741Z,20.37
2019-05-07T05:01:03.779Z,18.52
2019-05-07T05:03:34.650Z,16.02
2019-05-07T05:06:03.074Z,14.85
2019-05-07T05:08:32.585Z,15.80
2019-05-07T05:11:03.422Z,14.83
2019-05-07T05:13:33.162Z,19.35
2019-05-07T05:16:04.034Z,13.00
2019-05-07T05:18:33.118Z,15.10
2019-05-07T05:21:12.532Z,14.98
2019-05-07T05:23:52.362Z,17.12
2019-05-07T05:26:21.976Z,19.12
2019-05-07T05:28:52.566Z,16.67
2019-05-07T05:31:22.291Z,16.50
2019-05-07T05:33:52.677Z,16.87
2019-05-07T05:36:22.300Z,16.07
2019-05-07T05:38:52.930Z,14.03
2019-05-07T05:41:22.699Z,14.37
2019-05-07T05:43:56.183Z,13.68
2019-05-07T05:46:26.606Z,14.65
2019-05-07T05:48:55.374Z,14.83
2019-05-07T05:51:34.756Z,16.53
2019-05-07T05:54:22.295Z,15.95
2019-05-07T05:56:59.161Z,20.23
2019-05-07T05:59:49.182Z,17.23
2019-05-07T06:02:22.761Z,20.27
2019-05-07T06:05:01.970Z,17.77
2019-05-07T06:07:42.615Z,17.00
2019-05-07T06:10:28.551Z,17.73
2019-05-07T06:13:12.381Z,14.15
2019-05-07T06:16:02.935Z,13.95
2019-05-07T06:18:42.227Z,16.45
2019-05-07T06:21:12.678Z,16.02
2019-05-07T06:23:45.811Z,15.23
2019-05-07T06:26:14.549Z,15.55
2019-05-07T06:28:43.340Z,12.28
2019-05-07T06:31:12.635Z,20.67
2019-05-07T06:33:42.969Z,41.70
2019-05-07T06:36:13.319Z,22.07
2019-05-07T06:38:43.617Z,22.70
2019-05-07T06:41:16.953Z,20.02
2019-05-07T06:43:47.295Z,24.40
2019-05-07T06:46:16.247Z,70.50
2019-05-07T06:48:46.236Z,17.45
2019-05-07T06:51:17.453Z,19.93
2019-05-07T06:53:45.672Z,29.25
2019-05-07T06:56:14.391Z,22.20
2019-05-07T06:58:59.523Z,32.55
2019-05-07T07:01:32.109Z,14.55
2019-05-07T07:04:02.609Z,14.05
2019-05-07T07:06:33.279Z,14.90
2019-05-07T07:09:03.560Z,26.85
2019-05-07T07:11:36.883Z,13.18
2019-05-07T07:14:05.792Z,23.77
2019-05-07T07:16:34.512Z,19.07
2019-05-07T07:19:03.465Z,16.82
2019-05-07T07:21:32.751Z,22.80
2019-05-07T07:24:02.973Z,17.35
2019-05-07T07:26:32.754Z,13.60
2019-05-07T07:29:02.100Z,16.60
2019-05-07T07:31:38.596Z,12.47
2019-05-07T07:34:07.427Z,10.53
2019-05-07T07:36:37.751Z,7.60
2019-05-07T07:39:07.882Z,6.87
2019-05-07T07:41:38.157Z,6.40
2019-05-07T07:44:07.063Z,9.90
2019-05-07T07:46:35.980Z,7.40
2019-05-07T07:49:10.983Z,7.10
2019-05-07T07:51:41.862Z,13.48
2019-05-07T07:54:05.814Z,7.60
2019-05-07T07:56:56.466Z,8.25
2019-05-07T07:59:26.191Z,4.78
2019-05-07T08:01:56.487Z,8.63
2019-05-07T08:04:25.448Z,5.17
2019-05-07T08:07:03.335Z,7.28
2019-05-07T08:09:33.518Z,6.90
2019-05-07T08:12:02.747Z,3.17
2019-05-07T08:14:32.488Z,5.00
2019-05-07T08:17:03.916Z,6.12
2019-05-07T08:19:33.092Z,6.45
2019-05-07T08:22:02.871Z,5.25
2019-05-07T08:24:32.269Z,3.10
2019-05-07T08:27:02.425Z,3.83
2019-05-07T08:29:32.552Z,3.27
2019-05-07T08:32:18.888Z,5.42
2019-05-07T08:34:54.964Z,4.30
2019-05-07T08:37:24.509Z,2.63
2019-05-07T08:39:53.468Z,3.65
2019-05-07T08:42:22.891Z,4.85
2019-05-07T08:45:11.870Z,5.05
2019-05-07T08:47:44.799Z,11.08
2019-05-07T08:50:13.515Z,5.25
2019-05-07T08:52:42.363Z,4.75
2019-05-07T08:55:12.629Z,5.43
2019-05-07T08:57:42.050Z,5.47
2019-05-07T09:00:12.345Z,7.05
2019-05-07T09:02:42.112Z,11.95
2019-05-07T09:05:16.412Z,6.00
2019-05-07T09:07:47.429Z,3.20
2019-05-07T09:10:24.722Z,5.55
2019-05-07T09:13:02.703Z,3.92
2019-05-07T09:15:38.622Z,5.78
2019-05-07T09:18:12.437Z,3.05
2019-05-07T09:20:42.502Z,4.67
2019-05-07T09:23:12.375Z,5.58
2019-05-07T09:25:42.980Z,6.90
2019-05-07T09:28:11.930Z,2.85
2019-05-07T09:30:58.596Z,2.83
2019-05-07T09:33:28.887Z,8.85
2019-05-07T09:35:57.619Z,4.85
2019-05-07T09:38:26.412Z,4.22
2019-05-07T09:40:56.985Z,3.75
2019-05-07T09:43:25.490Z,9.43
2019-05-07T09:45:55.410Z,6.85
2019-05-07T09:48:24.326Z,3.85
2019-05-07T09:50:53.157Z,4.73
2019-05-07T09:53:22.870Z,2.72
2019-05-07T09:55:51.871Z,9.95
2019-05-07T09:58:35.030Z,5.65
2019-05-07T10:00:52.215Z,4.25
2019-05-07T10:03:22.795Z,5.40
2019-05-07T10:05:52.073Z,9.43
2019-05-07T10:08:20.876Z,4.55
2019-05-07T10:10:51.223Z,5.72
2019-05-07T10:13:32.873Z,5.30
2019-05-07T10:16:03.836Z,4.35
2019-05-07T10:18:32.116Z,4.85
2019-05-07T10:21:02.491Z,4.20
2019-05-07T10:23:32.323Z,7.97
2019-05-07T10:26:01.822Z,8.10
2019-05-07T10:28:32.059Z,7.72
2019-05-07T10:31:00.939Z,4.80
2019-05-07T10:33:31.970Z,6.90
2019-05-07T10:36:02.086Z,3.63
2019-05-07T10:38:30.980Z,3.02
2019-05-07T10:40:59.942Z,3.55
2019-05-07T10:43:28.723Z,2.67
2019-05-07T10:46:08.121Z,6.70
2019-05-07T10:48:38.653Z,4.37
2019-05-07T10:51:08.506Z,396.60
2019-05-07T10:53:37.215Z,4.00
2019-05-07T10:56:06.230Z,6.83
2019-05-07T10:58:34.963Z,13.05
2019-05-07T11:01:03.678Z,6.62
2019-05-07T11:03:32.595Z,4.17
2019-05-07T11:06:01.363Z,9.28
2019-05-07T11:08:30.083Z,6.00
2019-05-07T11:10:58.845Z,3.60
2019-05-07T11:13:27.579Z,6.45
2019-05-07T11:16:02.390Z,6.10
2019-05-07T11:18:35.461Z,8.10
2019-05-07T11:21:05.035Z,7.33
2019-05-07T11:23:33.790Z,18.57
2019-05-07T11:26:02.822Z,145.72
2019-05-07T11:28:32.321Z,2.40
2019-05-07T11:31:02.073Z,2.77
2019-05-07T11:33:32.502Z,3.50
2019-05-07T11:36:02.146Z,3.05
2019-05-07T11:38:33.129Z,4.87
2019-05-07T11:41:02.370Z,5.80
2019-05-07T11:43:38.964Z,5.50
2019-05-07T11:46:09.256Z,4.30
2019-05-07T11:48:39.574Z,2.33
2019-05-07T11:51:09.866Z,1.50
2019-05-07T11:53:56.459Z,9.20
2019-05-07T11:56:25.286Z,4.67
2019-05-07T11:58:54.873Z,5.23
2019-05-07T12:01:23.691Z,9.93
2019-05-07T12:03:52.424Z,4.67
2019-05-07T12:06:21.704Z,2.07
2019-05-07T12:08:52.069Z,1.77
2019-05-07T12:11:21.887Z,2.77
2019-05-07T12:13:52.348Z,3.12
2019-05-07T12:16:22.354Z,3.98
2019-05-07T12:18:52.455Z,3.02
2019-05-07T12:21:24.247Z,2.25
2019-05-07T12:23:53.224Z,3.05
2019-05-07T12:26:22.292Z,2.22
2019-05-07T12:28:52.171Z,2.40
2019-05-07T12:31:28.595Z,4.50
2019-05-07T12:34:04.890Z,3.37
2019-05-07T12:36:33.599Z,3.27
2019-05-07T12:39:02.390Z,6.53
2019-05-07T12:41:34.362Z,6.70
2019-05-07T12:44:05.313Z,3.00
2019-05-07T12:46:34.093Z,200.47
2019-05-07T12:49:03.298Z,4.80
2019-05-07T12:51:37.548Z,3.75
2019-05-07T12:54:18.914Z,2.25
2019-05-07T12:56:47.919Z,4.50
2019-05-07T12:59:16.652Z,3.67
2019-05-07T13:02:15.969Z,5.70
2019-05-07T13:04:34.944Z,7.03
2019-05-07T13:07:14.113Z,9.08
2019-05-07T13:09:42.932Z,2.50
2019-05-07T13:12:11.635Z,6.47
2019-05-07T13:14:41.162Z,4.67
2019-05-07T13:17:11.969Z,3.13
2019-05-07T13:19:41.880Z,4.72
2019-05-07T13:22:12.403Z,6.17
2019-05-07T13:24:42.492Z,3.42
2019-05-07T13:27:11.448Z,10.93
2019-05-07T13:29:42.512Z,1.47
2019-05-07T13:32:12.240Z,2.37
2019-05-07T13:34:42.543Z,2.12
2019-05-07T13:37:21.798Z,3.95
2019-05-07T13:39:54.730Z,1.95
2019-05-07T13:42:43.984Z,2.50
2019-05-07T13:45:17.635Z,1.30
2019-05-07T13:47:46.932Z,3.55
2019-05-07T13:50:15.706Z,1.72
2019-05-07T13:52:44.655Z,2.62
2019-05-07T13:55:13.375Z,2.85
2019-05-07T13:57:42.142Z,1.35
2019-05-07T14:00:12.828Z,1.80
2019-05-07T14:02:42.203Z,1.40
2019-05-07T14:05:13.987Z,4.15
2019-05-07T14:07:43.381Z,3.92
2019-05-07T14:10:12.689Z,2.75
2019-05-07T14:12:42.518Z,5.53
2019-05-07T14:15:12.571Z,3.22
2019-05-07T14:17:42.646Z,6.22
2019-05-07T14:20:12.923Z,1.90
2019-05-07T14:22:42.520Z,3.08
2019-05-07T14:25:11.382Z,2.93
2019-05-07T14:27:40.173Z,3.50
2019-05-07T14:30:08.909Z,2.90
2019-05-07T14:32:44.778Z,2.62
2019-05-07T14:35:23.859Z,10.95
2019-05-07T14:37:54.173Z,4.97
2019-05-07T14:40:25.169Z,2.40
2019-05-07T14:42:54.854Z,2.77
2019-05-07T14:45:23.931Z,1.40
2019-05-07T14:47:52.724Z,2.22
2019-05-07T14:50:22.592Z,3.42
2019-05-07T14:52:55.153Z,2.35
2019-05-07T14:55:22.775Z,4.83
2019-05-07T14:57:52.546Z,3.52
2019-05-07T15:00:22.541Z,4.45
2019-05-07T15:02:52.495Z,5.40
2019-05-07T15:05:22.463Z,3.12
2019-05-07T15:07:51.380Z,4.60
2019-05-07T15:10:22.224Z,4.85
2019-05-07T15:12:52.219Z,2.08
2019-05-07T15:15:21.987Z,1.72
2019-05-07T15:17:52.914Z,2.90
2019-05-07T15:20:22.550Z,1.82
2019-05-07T15:22:59.020Z,2.30
2019-05-07T15:25:27.784Z,2.90
2019-05-07T15:27:57.486Z,5.40
2019-05-07T15:30:27.835Z,3.35
2019-05-07T15:32:56.555Z,1.85
2019-05-07T15:35:25.339Z,3.77
2019-05-07T15:37:54.263Z,7.72
2019-05-07T15:40:23.812Z,3.05
2019-05-07T15:42:52.661Z,8.85
2019-05-07T15:45:21.875Z,5.30
2019-05-07T15:47:52.300Z,3.08
2019-05-07T15:50:23.152Z,2.05
2019-05-07T15:52:59.169Z,4.55
2019-05-07T15:55:27.977Z,1.73
2019-05-07T15:57:58.038Z,3.98
2019-05-07T16:00:28.444Z,62.58
2019-05-07T16:03:02.532Z,3.00
2019-05-07T16:05:31.948Z,6.00
2019-05-07T16:08:01.700Z,10.05
2019-05-07T16:10:32.312Z,3.02
2019-05-07T16:13:01.265Z,4.03
2019-05-07T16:15:32.001Z,6.40
2019-05-07T16:18:02.925Z,2.50
2019-05-07T16:20:32.557Z,3.53
2019-05-07T16:23:14.342Z,2.72
2019-05-07T16:25:34.556Z,2.65
2019-05-07T16:28:04.831Z,4.28
2019-05-07T16:30:33.914Z,3.70
2019-05-07T16:33:03.501Z,3.70
2019-05-07T16:35:32.310Z,2.65
2019-05-07T16:38:01.450Z,1.87
2019-05-07T16:40:32.340Z,2.05
2019-05-07T18:16:39.196Z,3.50
2019-05-07T18:20:53.234Z,2.12
2019-05-07T18:26:01.060Z,5.83
2019-05-07T18:28:32.358Z,5.40
2019-05-07T18:31:02.016Z,15.32
2019-05-07T18:33:33.566Z,19.67
2019-05-07T18:36:03.171Z,653.17
2019-05-07T18:38:32.974Z,414.37
2019-05-07T18:41:02.913Z,683.92
2019-05-07T18:43:33.533Z,185.40
2019-05-07T18:46:03.751Z,138.10
2019-05-07T18:48:32.745Z,28.25
2019-05-07T18:51:02.671Z,15.58
2019-05-07T18:53:31.958Z,12.45
2019-05-07T18:56:01.697Z,9.65
2019-05-07T18:58:31.914Z,7.58
2019-05-07T19:01:09.975Z,6.25
2019-05-07T19:03:39.313Z,5.22
2019-05-07T19:06:08.702Z,5.92
2019-05-07T19:08:39.125Z,4.90
2019-05-07T19:11:08.122Z,4.75
2019-05-07T19:13:37.111Z,5.05
2019-05-07T19:16:07.132Z,3.98
2019-05-07T19:18:36.020Z,4.72
2019-05-07T19:21:06.834Z,4.72
2019-05-07T19:23:38.003Z,5.08
2019-05-07T19:26:07.097Z,4.12
2019-05-07T19:28:36.296Z,3.70
2019-05-07T19:31:06.323Z,4.85
2019-05-07T19:33:35.208Z,3.10
2019-05-07T19:36:05.744Z,4.37
2019-05-07T19:38:36.056Z,4.28
2019-05-07T19:41:06.173Z,3.20
2019-05-07T19:43:36.359Z,2.95
2019-05-07T19:46:05.698Z,5.62
2019-05-07T19:48:34.706Z,3.65
2019-05-07T19:51:03.683Z,4.62
2019-05-07T19:53:32.982Z,2.40
2019-05-07T19:56:09.657Z,4.30
2019-05-07T19:58:38.956Z,5.27
2019-05-07T20:01:09.217Z,11.28
2019-05-07T20:03:38.478Z,26.73
2019-05-07T20:06:07.473Z,155.40
2019-05-07T20:08:37.694Z,211.77
2019-05-07T20:11:14.367Z,205.62
2019-05-07T20:13:43.972Z,217.40
2019-05-07T20:16:17.882Z,189.22
2019-05-07T20:18:49.231Z,225.28
2019-05-07T20:21:18.119Z,198.93
2019-05-07T20:23:47.112Z,184.55
2019-05-07T20:26:16.004Z,139.05
2019-05-07T20:28:46.943Z,131.63
2019-05-07T20:31:15.938Z,118.87
2019-05-07T20:33:44.827Z,84.72
2019-05-07T20:36:13.947Z,74.40
2019-05-07T20:38:43.439Z,50.70
2019-05-07T20:41:13.625Z,42.20
2019-05-07T20:43:43.051Z,34.48
2019-05-07T20:46:12.091Z,29.05
2019-05-07T20:48:42.349Z,43.85
2019-05-07T20:51:13.018Z,129.47
2019-05-07T20:53:52.747Z,226.70
2019-05-07T20:56:27.269Z,269.30
2019-05-07T20:58:56.262Z,672.75
2019-05-07T21:01:25.564Z,385.43
2019-05-07T21:03:54.659Z,292.82
2019-05-07T21:06:25.700Z,276.00
2019-05-07T21:08:54.999Z,324.88
2019-05-07T21:11:24.299Z,339.88
2019-05-07T21:13:53.293Z,253.27
2019-05-07T21:16:22.593Z,267.27
2019-05-07T21:18:52.819Z,250.75
2019-05-07T21:21:22.423Z,237.95
2019-05-07T21:23:52.686Z,231.68
2019-05-07T21:26:22.498Z,200.90
2019-05-07T21:28:52.916Z,189.87
2019-05-07T21:31:22.876Z,183.17
2019-05-07T21:33:52.630Z,161.20
2019-05-07T21:36:22.779Z,147.68
2019-05-07T21:38:52.550Z,138.07
2019-05-07T21:41:22.872Z,126.12
2019-05-07T21:43:52.931Z,119.70
2019-05-07T21:46:22.498Z,113.03
2019-05-07T21:48:53.738Z,107.20
2019-05-07T21:51:24.471Z,95.00
2019-05-07T21:54:07.504Z,89.60
2019-05-07T21:56:42.118Z,89.03
2019-05-07T21:59:15.720Z,81.42
2019-05-07T22:01:46.556Z,72.27
2019-05-07T22:04:15.549Z,73.97
2019-05-07T22:06:45.541Z,67.10
2019-05-07T22:09:15.685Z,61.42
2019-05-07T22:11:44.678Z,65.17
2019-05-07T22:14:13.979Z,56.90
2019-05-07T22:16:43.381Z,52.20
2019-05-07T22:19:12.382Z,51.98
2019-05-07T22:21:43.185Z,48.53
2019-05-07T22:24:15.105Z,40.87
2019-05-07T22:26:44.781Z,43.55
2019-05-07T22:29:13.773Z,36.33
2019-05-07T22:31:44.632Z,36.80
2019-05-07T22:34:15.446Z,33.00
2019-05-07T22:36:44.543Z,30.65
2019-05-07T22:39:14.357Z,28.75
2019-05-07T22:41:45.294Z,30.08
2019-05-07T22:44:16.642Z,25.35
2019-05-07T22:46:52.767Z,23.52
2019-05-07T22:49:22.938Z,23.25
2019-05-07T22:51:54.759Z,18.95
2019-05-07T22:54:23.676Z,18.23
2019-05-07T22:57:13.987Z,20.80
2019-05-07T22:59:43.160Z,16.48
2019-05-07T23:02:12.566Z,16.25
2019-05-07T23:04:43.215Z,14.17
2019-05-07T23:07:12.777Z,13.18
2019-05-07T23:09:42.002Z,13.55
2019-05-07T23:12:12.498Z,12.25
2019-05-07T23:14:41.730Z,11.65
2019-05-07T23:17:12.595Z,12.15
2019-05-07T23:19:41.943Z,13.03
2019-05-07T23:22:13.368Z,8.45
2019-05-07T23:24:43.640Z,8.88
2019-05-07T23:27:14.789Z,8.80
2019-05-07T23:29:43.973Z,6.08
2019-05-07T23:32:13.386Z,7.60
2019-05-07T23:34:43.304Z,7.85
2019-05-07T23:37:12.200Z,7.25
2019-05-07T23:39:42.822Z,5.20
2019-05-07T23:42:13.559Z,6.12
2019-05-07T23:44:42.551Z,7.20
2019-05-07T23:47:12.188Z,4.17
2019-05-07T23:49:43.021Z,6.92
2019-05-07T23:52:12.926Z,3.17
2019-05-07T23:54:42.547Z,4.80
2019-05-07T23:57:14.912Z,2.80
2019-05-07T23:59:42.358Z,3.37
